Time;durP1;ratioP1;P1;durP2;ratioP2;P2;SDS_P1;SDS_P2;PMS_P1;PMS_P2;Temp;Humidity;BMP_temperature;BMP_pressure;BME280_temperature;BME280_humidity;BME280_pressure;Samples;Min_cycle;Max_cycle;Signal;HPM_P1;HPM_P2
2021/07/13 00:00:13;;;;;;;3.07;1.33;;;;;;;26.46;73.29;97248.06;5061225;28;20226;-69
2021/07/13 00:02:40;;;;;;;1.30;0.97;;;;;;;26.67;71.29;97253.75;5052406;28;20205;-69
2021/07/13 00:05:11;;;;;;;3.63;1.03;;;;;;;26.41;72.88;97266.59;5060007;28;20229;-68
2021/07/13 00:07:38;;;;;;;2.20;1.07;;;;;;;26.18;73.84;97259.63;5057204;28;20213;-70
2021/07/13 00:10:07;;;;;;;2.40;1.10;;;;;;;26.74;70.58;97254.88;5067869;28;20208;-68
2021/07/13 00:12:35;;;;;;;2.27;1.03;;;;;;;27.07;69.34;97263.41;5063212;28;20209;-69
2021/07/13 00:15:03;;;;;;;1.50;1.00;;;;;;;25.52;74.81;97255.19;5063362;28;20298;-68
2021/07/13 00:17:31;;;;;;;2.07;1.03;;;;;;;26.71;71.27;97254.72;5063560;28;20202;-68
2021/07/13 00:19:58;;;;;;;1.80;1.13;;;;;;;26.76;70.71;97254.56;5066710;28;20232;-69
2021/07/13 00:22:26;;;;;;;1.90;1.10;;;;;;;25.79;76.87;97254.19;5062469;28;20210;-72
2021/07/13 00:24:53;;;;;;;1.67;1.13;;;;;;;26.29;74.52;97250.00;5066897;28;20221;-69
2021/07/13 00:27:20;;;;;;;1.40;1.30;;;;;;;26.26;75.22;97251.44;5061172;28;20210;-68
2021/07/13 00:29:47;;;;;;;1.97;1.20;;;;;;;25.84;79.01;97254.03;5065009;28;20560;-70
2021/07/13 00:32:14;;;;;;;3.50;1.40;;;;;;;25.78;78.58;97247.06;5059678;28;20205;-69
2021/07/13 00:34:43;;;;;;;2.47;1.30;;;;;;;25.96;77.64;97249.59;5065949;28;20578;-69
2021/07/13 00:37:10;;;;;;;2.93;1.40;;;;;;;25.61;79.63;97263.41;5066853;28;20661;-68
2021/07/13 00:39:37;;;;;;;8.10;2.03;;;;;;;26.58;75.39;97272.91;5066344;28;20217;-69
2021/07/13 00:42:05;;;;;;;1.87;1.47;;;;;;;26.33;76.81;97283.78;5065103;28;20209;-69
2021/07/13 00:44:32;;;;;;;2.40;1.30;;;;;;;25.05;86.23;97283.16;5062662;28;20229;-69
2021/07/13 00:47:00;;;;;;;4.50;1.47;;;;;;;25.90;81.81;97280.91;5064104;28;20223;-69
2021/07/13 00:49:28;;;;;;;6.80;1.70;;;;;;;26.12;81.65;97263.63;5064546;28;20208;-72
2021/07/13 00:51:56;;;;;;;4.47;1.60;;;;;;;25.59;85.24;97254.75;5058593;28;20213;-69
2021/07/13 00:54:24;;;;;;;4.90;1.87;;;;;;;25.10;89.95;97246.72;5062227;28;20244;-72
2021/07/13 00:56:53;;;;;;;5.70;1.50;;;;;;;25.38;91.60;97256.41;5056388;28;20626;-72
2021/07/13 00:59:20;;;;;;;1.73;1.33;;;;;;;25.02;94.83;97240.06;5066604;28;20221;-71
2021/07/13 01:01:47;;;;;;;2.83;1.60;;;;;;;24.13;99.31;97227.44;5060114;28;20198;-71
2021/07/13 01:04:15;;;;;;;3.27;1.30;;;;;;;24.23;97.73;97220.97;5061325;28;20260;-72
2021/07/13 01:06:49;;;;;;;3.10;1.47;;;;;;;24.27;100.00;97225.47;5060523;28;20204;-71
2021/07/13 01:09:28;;;;;;;3.67;1.60;;;;;;;24.20;99.78;97224.28;5064031;28;20215;-71
2021/07/13 01:12:03;;;;;;;2.37;1.40;;;;;;;23.75;100.00;97206.13;5056108;28;20235;-71
2021/07/13 01:14:35;;;;;;;4.07;1.23;;;;;;;23.89;100.00;97194.16;5061580;28;20230;-72
2021/07/13 01:17:04;;;;;;;2.97;1.37;;;;;;;24.96;97.92;97207.75;5060304;28;20208;-71
2021/07/13 01:19:58;;;;;;;3.67;1.70;;;;;;;23.35;100.00;97223.31;5063806;28;20225;-71
2021/07/13 01:22:29;;;;;;;2.03;1.30;;;;;;;24.72;98.57;97238.09;5069887;28;20218;-71
2021/07/13 01:25:08;;;;;;;3.00;1.60;;;;;;;24.94;98.88;97229.91;5062078;28;20226;-70
2021/07/13 01:28:06;;;;;;;2.00;1.30;;;;;;;24.83;98.30;97231.25;5068869;28;20209;-70
2021/07/13 01:30:37;;;;;;;4.97;1.50;;;;;;;25.34;94.82;97225.38;5072081;28;20215;-71
2021/07/13 01:33:08;;;;;;;3.20;1.40;;;;;;;24.97;97.31;97223.00;5064131;28;20239;-71
2021/07/13 01:35:39;;;;;;;4.97;1.60;;;;;;;25.19;96.25;97223.00;5071751;28;20282;-71
2021/07/13 01:38:09;;;;;;;3.20;1.23;;;;;;;24.58;98.51;97231.06;5059369;28;20761;-71
2021/07/13 01:40:36;;;;;;;2.60;1.53;;;;;;;25.21;95.74;97234.41;5071311;28;20285;-71
2021/07/13 01:43:06;;;;;;;6.20;1.40;;;;;;;25.20;98.16;97238.25;5062507;28;20240;-71
2021/07/13 01:45:33;;;;;;;2.67;1.47;;;;;;;24.68;98.12;97236.31;5070064;28;20681;-71
2021/07/13 01:48:02;;;;;;;3.13;1.40;;;;;;;24.69;98.50;97249.66;5062277;28;20212;-71
2021/07/13 01:50:30;;;;;;;2.67;1.30;;;;;;;24.91;99.53;97255.09;5069083;28;20203;-71
2021/07/13 01:52:57;;;;;;;2.93;1.40;;;;;;;24.96;97.95;97256.88;5055696;28;20235;-71
2021/07/13 01:55:25;;;;;;;5.67;1.43;;;;;;;25.33;95.53;97267.47;5062933;28;20203;-69
2021/07/13 01:57:54;;;;;;;3.23;1.30;;;;;;;25.35;96.08;97281.59;5058562;28;20211;-71
2021/07/13 02:00:23;;;;;;;1.97;1.30;;;;;;;24.93;97.94;97282.88;5070133;28;20229;-69
2021/07/13 02:02:50;;;;;;;3.10;1.30;;;;;;;25.04;97.72;97300.63;5064428;28;20572;-72
2021/07/13 02:05:20;;;;;;;6.20;1.77;;;;;;;25.03;98.16;97290.03;5065642;28;20216;-72
2021/07/13 02:07:49;;;;;;;3.43;1.57;;;;;;;25.08;98.58;97284.47;5064892;28;20648;-69
2021/07/13 02:10:18;;;;;;;4.73;1.60;;;;;;;25.13;98.26;97282.38;5068170;28;20217;-70
2021/07/13 02:12:45;;;;;;;6.93;1.47;;;;;;;25.34;97.01;97293.66;5064450;28;20255;-69
2021/07/13 02:15:13;;;;;;;5.43;1.43;;;;;;;25.72;94.68;97286.59;5067288;28;20215;-69
2021/07/13 02:17:44;;;;;;;3.23;1.60;;;;;;;25.66;94.00;97296.91;5063796;28;20203;-69
2021/07/13 02:20:12;;;;;;;2.57;1.67;;;;;;;25.41;95.82;97296.75;5066361;28;20231;-69
2021/07/13 02:22:40;;;;;;;2.73;1.63;;;;;;;26.07;93.50;97302.06;5062175;28;20657;-69
2021/07/13 02:25:10;;;;;;;2.90;1.40;;;;;;;25.79;92.23;97303.38;5065824;28;20221;-69
2021/07/13 02:27:38;;;;;;;3.30;1.70;;;;;;;25.78;91.80;97309.94;5061807;28;20209;-69
2021/07/13 02:30:08;;;;;;;3.17;1.63;;;;;;;25.86;91.96;97309.19;5069969;28;20219;-68
2021/07/13 02:32:43;;;;;;;4.70;1.87;;;;;;;26.25;91.33;97318.22;5065398;28;20208;-69
2021/07/13 02:35:13;;;;;;;6.10;1.90;;;;;;;26.21;90.00;97322.72;5068299;28;20653;-69
2021/07/13 02:37:41;;;;;;;5.93;2.00;;;;;;;26.13;90.50;97306.25;5064189;28;20215;-69
2021/07/13 02:40:10;;;;;;;4.63;1.90;;;;;;;25.92;97.58;97313.44;5068479;28;20236;-69
2021/07/13 02:42:37;;;;;;;4.57;1.70;;;;;;;25.89;95.53;97314.84;5061365;28;20235;-69
2021/07/13 02:45:06;;;;;;;5.30;1.97;;;;;;;25.89;94.98;97320.31;5062103;28;20208;-69
2021/07/13 02:47:34;;;;;;;5.53;1.80;;;;;;;25.83;93.82;97307.06;5064007;28;20208;-69
2021/07/13 02:50:03;;;;;;;5.17;2.20;;;;;;;25.75;97.95;97289.50;5067669;28;20280;-69
2021/07/13 02:52:32;;;;;;;4.37;1.97;;;;;;;25.15;100.00;97271.16;5058042;28;20572;-69
2021/07/13 02:55:05;;;;;;;5.60;2.27;;;;;;;25.49;99.12;97255.78;5062592;28;20234;-69
2021/07/13 02:57:32;;;;;;;6.13;2.37;;;;;;;25.28;100.00;97257.44;5070467;28;20583;-68
2021/07/13 03:00:00;;;;;;;3.90;1.83;;;;;;;24.49;100.00;97243.81;5062280;28;20229;-69
2021/07/13 03:02:28;;;;;;;3.70;1.73;;;;;;;25.53;100.00;97243.13;5068801;28;20217;-69
2021/07/13 03:04:57;;;;;;;3.87;2.00;;;;;;;25.62;94.93;97243.16;5056830;28;20600;-69
2021/07/13 03:07:26;;;;;;;2.50;1.90;;;;;;;26.14;94.70;97239.53;5068073;28;20221;-69
2021/07/13 03:09:53;;;;;;;4.57;1.90;;;;;;;26.09;96.42;97229.50;5060807;28;20225;-69
2021/07/13 03:12:21;;;;;;;5.07;1.80;;;;;;;25.67;97.96;97218.41;5066899;28;20205;-69
2021/07/13 03:14:49;;;;;;;3.43;2.20;;;;;;;25.86;96.23;97208.84;5054690;28;20249;-68
2021/07/13 03:17:18;;;;;;;4.27;1.97;;;;;;;25.84;96.80;97197.41;5065667;28;20217;-69
2021/07/13 03:19:45;;;;;;;3.73;2.23;;;;;;;26.01;95.77;97180.28;5064341;28;20221;-69
2021/07/13 03:22:19;;;;;;;2.50;2.00;;;;;;;25.80;95.08;97179.25;5067961;28;20215;-69
2021/07/13 03:24:48;;;;;;;4.83;1.97;;;;;;;26.08;93.56;97166.91;5062712;28;20232;-69
2021/07/13 03:27:15;;;;;;;3.77;1.77;;;;;;;26.05;93.58;97154.69;5067145;28;20206;-69
2021/07/13 03:29:43;;;;;;;3.93;1.90;;;;;;;26.04;91.58;97157.78;5061741;28;20200;-69
2021/07/13 03:32:10;;;;;;;4.77;1.83;;;;;;;25.96;91.59;97162.09;5066923;28;20286;-69
2021/07/13 03:34:38;;;;;;;3.77;1.80;;;;;;;25.91;91.38;97154.06;5060814;28;20239;-69
2021/07/13 03:37:06;;;;;;;2.97;1.93;;;;;;;25.69;93.39;97145.13;5066019;28;20222;-68
2021/07/13 03:39:33;;;;;;;5.20;2.07;;;;;;;26.23;91.61;97147.31;5060607;28;20824;-68
2021/07/13 03:42:02;;;;;;;2.40;1.80;;;;;;;26.23;90.70;97139.09;5066116;28;20227;-69
2021/07/13 03:44:30;;;;;;;2.90;1.90;;;;;;;25.42;97.21;97145.34;5059657;28;20239;-69
2021/07/13 03:46:57;;;;;;;3.17;2.20;;;;;;;26.14;92.79;97143.78;5065827;28;20208;-69
2021/07/13 03:49:26;;;;;;;4.33;2.00;;;;;;;25.65;97.13;97155.09;5059956;28;20658;-69
2021/07/13 03:51:53;;;;;;;3.87;2.10;;;;;;;25.94;94.48;97145.19;5061302;28;20205;-69
2021/07/13 03:54:21;;;;;;;2.73;1.60;;;;;;;26.00;95.76;97141.16;5065587;28;20256;-69
2021/07/13 03:56:50;;;;;;;3.20;1.97;;;;;;;25.55;96.26;97131.59;5062871;28;20204;-69
2021/07/13 03:59:20;;;;;;;3.97;2.20;;;;;;;25.25;100.00;97134.34;5064498;28;20210;-68
2021/07/13 04:01:49;;;;;;;4.40;2.47;;;;;;;25.95;96.66;97126.88;5065649;28;20225;-69
2021/07/13 04:04:16;;;;;;;2.70;2.10;;;;;;;26.06;94.89;97123.50;5062027;28;20276;-69
2021/07/13 04:06:43;;;;;;;3.57;2.60;;;;;;;25.68;94.88;97125.19;5064209;28;20205;-69
2021/07/13 04:09:10;;;;;;;4.60;2.83;;;;;;;25.18;100.00;97136.72;5065618;28;20213;-69
2021/07/13 04:11:38;;;;;;;5.00;3.67;;;;;;;25.70;99.65;97135.78;5063773;28;20211;-68
2021/07/13 04:14:05;;;;;;;6.57;3.00;;;;;;;26.15;94.13;97132.50;5057373;28;20266;-69
2021/07/13 04:16:35;;;;;;;5.33;3.10;;;;;;;25.84;96.83;97122.81;5061882;28;20217;-69
2021/07/13 04:19:02;;;;;;;6.60;3.20;;;;;;;25.49;97.30;97119.19;5063735;28;20224;-68
2021/07/13 04:21:30;;;;;;;5.23;2.90;;;;;;;25.21;99.21;97128.72;5069027;28;20251;-69
2021/07/13 04:23:57;;;;;;;3.63;2.60;;;;;;;25.61;96.80;97126.78;5063268;28;20234;-69
2021/07/13 04:26:25;;;;;;;4.37;3.10;;;;;;;24.77;100.00;97134.25;5068464;28;20219;-69
2021/07/13 04:28:52;;;;;;;3.10;2.67;;;;;;;25.09;99.83;97125.75;5063767;28;20206;-69
2021/07/13 04:31:19;;;;;;;4.33;3.40;;;;;;;26.16;94.51;97117.72;5067476;28;20198;-69
2021/07/13 04:33:48;;;;;;;4.97;3.30;;;;;;;24.79;100.00;97110.22;5063541;28;20228;-69
2021/07/13 04:36:15;;;;;;;4.93;3.47;;;;;;;25.87;97.84;97097.53;5065690;28;20212;-69
2021/07/13 04:38:42;;;;;;;5.33;3.80;;;;;;;26.32;94.01;97087.94;5062849;28;20202;-68
2021/07/13 04:41:10;;;;;;;6.00;3.40;;;;;;;26.51;92.86;97107.53;5065187;28;20229;-69
2021/07/13 04:43:37;;;;;;;5.60;3.43;;;;;;;26.41;92.23;97121.56;5056026;28;20599;-69
2021/07/13 04:46:04;;;;;;;5.23;4.17;;;;;;;25.93;92.72;97135.38;5063791;28;20212;-69
2021/07/13 04:48:31;;;;;;;4.67;3.77;;;;;;;25.83;97.08;97132.94;5062703;28;20201;-69
2021/07/13 04:51:00;;;;;;;5.27;4.07;;;;;;;25.61;94.03;97133.06;5062386;28;20209;-68
2021/07/13 04:53:27;;;;;;;5.00;3.93;;;;;;;25.92;94.40;97124.75;5062944;28;20721;-71
2021/07/13 04:55:54;;;;;;;5.33;4.13;;;;;;;25.50;97.21;97136.38;5064823;28;20205;-69
2021/07/13 04:58:22;;;;;;;4.80;3.50;;;;;;;26.72;89.57;97136.69;5068656;28;20205;-69
2021/07/13 05:00:49;;;;;;;4.13;3.20;;;;;;;26.62;88.26;97131.56;5067350;28;20221;-69
2021/07/13 05:03:16;;;;;;;5.00;3.57;;;;;;;25.89;95.32;97136.31;5063027;28;20594;-69
2021/07/13 05:05:43;;;;;;;5.27;3.30;;;;;;;26.91;90.04;97137.13;5066241;28;20205;-69
2021/07/13 05:08:12;;;;;;;4.90;3.13;;;;;;;26.93;86.57;97142.28;5066921;28;20214;-69
2021/07/13 05:10:39;;;;;;;3.60;3.03;;;;;;;26.93;89.04;97143.09;5050202;28;20279;-69
2021/07/13 05:13:09;;;;;;;3.93;3.20;;;;;;;27.34;85.45;97135.06;5061341;28;20590;-69
2021/07/13 05:15:39;;;;;;;3.47;2.70;;;;;;;27.57;83.50;97130.13;5072979;28;20645;-69
2021/07/13 05:18:08;;;;;;;2.90;2.57;;;;;;;26.70;88.11;97138.16;5065428;28;20202;-69
2021/07/13 05:20:35;;;;;;;4.10;2.63;;;;;;;27.11;85.78;97143.84;5072130;28;20770;-69
2021/07/13 05:23:07;;;;;;;5.43;2.23;;;;;;;27.33;85.05;97133.47;5064710;28;20279;-69
2021/07/13 05:25:37;;;;;;;3.40;2.40;;;;;;;26.90;88.88;97126.50;5072004;28;20205;-69
2021/07/13 05:28:04;;;;;;;3.97;2.57;;;;;;;26.22;88.01;97134.75;5063396;28;20210;-69
2021/07/13 05:30:32;;;;;;;6.20;2.57;;;;;;;27.01;88.54;97125.03;5070997;28;20208;-69
2021/07/13 05:32:59;;;;;;;5.53;2.90;;;;;;;27.04;85.17;97121.59;5062923;28;20590;-69
2021/07/13 05:35:27;;;;;;;5.70;2.57;;;;;;;27.08;84.65;97114.34;5069600;28;20209;-69
2021/07/13 05:37:54;;;;;;;3.13;2.00;;;;;;;26.61;86.76;97113.50;5063284;28;20213;-68
2021/07/13 05:40:21;;;;;;;3.67;2.17;;;;;;;26.21;88.51;97116.75;5065998;28;20229;-69
2021/07/13 05:42:50;;;;;;;2.63;1.77;;;;;;;26.68;87.50;97115.75;5063985;28;20198;-67
2021/07/13 05:45:17;;;;;;;3.30;1.87;;;;;;;26.39;86.96;97119.16;5067020;28;20209;-69
2021/07/13 05:47:44;;;;;;;4.07;2.23;;;;;;;27.05;85.98;97109.53;5065929;28;20197;-71
2021/07/13 05:50:13;;;;;;;5.47;1.80;;;;;;;26.29;85.92;97105.00;5069123;28;20577;-69
2021/07/13 05:52:41;;;;;;;3.40;2.03;;;;;;;26.78;85.32;97109.94;5059798;28;20607;-69
2021/07/13 05:55:09;;;;;;;2.53;1.80;;;;;;;27.12;82.45;97118.84;5062536;28;20209;-70
2021/07/13 05:57:36;;;;;;;4.00;2.00;;;;;;;27.04;84.03;97127.91;5071982;28;20205;-69
2021/07/13 06:00:07;;;;;;;3.00;1.97;;;;;;;27.60;81.13;97135.75;5054470;28;20214;-69
2021/07/13 06:02:34;;;;;;;4.27;1.87;;;;;;;27.78;80.07;97136.47;5071439;28;20201;-69
2021/07/13 06:05:01;;;;;;;2.97;1.90;;;;;;;27.84;80.88;97137.91;5052841;28;20206;-70
2021/07/13 06:07:28;;;;;;;2.77;1.87;;;;;;;27.70;80.63;97140.84;5069451;28;20201;-70
2021/07/13 06:09:56;;;;;;;2.67;2.10;;;;;;;27.50;83.32;97158.06;5062355;28;20566;-69
2021/07/13 06:12:23;;;;;;;3.47;2.07;;;;;;;27.40;82.57;97160.34;5068614;28;20296;-69
2021/07/13 06:14:51;;;;;;;4.67;2.37;;;;;;;26.34;92.14;97140.38;5061865;28;20241;-70
2021/07/13 06:17:19;;;;;;;4.07;2.20;;;;;;;27.72;87.37;97140.53;5067058;28;20229;-69
2021/07/13 06:19:46;;;;;;;2.43;1.83;;;;;;;27.05;86.09;97150.63;5066106;28;20205;-69
2021/07/13 06:22:14;;;;;;;2.83;2.10;;;;;;;27.39;87.20;97156.00;5069134;28;20588;-69
2021/07/13 06:24:41;;;;;;;4.53;2.43;;;;;;;27.28;86.90;97149.28;5064711;28;20225;-68
2021/07/13 06:27:08;;;;;;;3.63;2.27;;;;;;;26.87;91.38;97136.19;5068972;28;20296;-69
2021/07/13 06:29:36;;;;;;;4.00;1.83;;;;;;;25.72;95.65;97128.88;5064038;28;20208;-69
2021/07/13 06:32:03;;;;;;;2.60;1.73;;;;;;;26.05;94.28;97130.06;5067977;28;20210;-69
2021/07/13 06:34:32;;;;;;;2.63;1.80;;;;;;;26.72;90.58;97141.34;5059167;28;20234;-70
2021/07/13 06:36:59;;;;;;;3.37;2.00;;;;;;;27.00;87.55;97126.16;5062383;28;20607;-69
2021/07/13 06:39:26;;;;;;;3.57;2.30;;;;;;;26.48;91.57;97130.06;5061413;28;20213;-69
2021/07/13 06:41:54;;;;;;;3.07;1.87;;;;;;;26.95;88.88;97140.81;5067251;28;20228;-68
2021/07/13 06:44:21;;;;;;;4.03;2.10;;;;;;;26.95;88.08;97140.03;5060993;28;20620;-71
2021/07/13 06:46:49;;;;;;;4.23;2.00;;;;;;;27.33;86.92;97149.09;5066370;28;20201;-69
2021/07/13 06:49:16;;;;;;;2.70;1.73;;;;;;;26.89;85.47;97160.47;5068053;28;20209;-69
2021/07/13 06:51:44;;;;;;;3.77;2.13;;;;;;;26.85;88.03;97168.53;5062998;28;20204;-70
2021/07/13 06:54:12;;;;;;;3.37;2.00;;;;;;;27.27;87.08;97170.38;5056184;28;20240;-70
2021/07/13 06:56:39;;;;;;;3.77;2.03;;;;;;;27.13;86.71;97172.53;5062439;28;20201;-71
2021/07/13 06:59:06;;;;;;;4.90;1.87;;;;;;;27.71;82.76;97156.16;5068378;28;20688;-71
2021/07/13 07:01:33;;;;;;;4.33;1.87;;;;;;;27.43;86.26;97151.47;5063377;28;20233;-71
2021/07/13 07:04:01;;;;;;;1.93;1.70;;;;;;;27.08;84.50;97161.72;5067894;28;20225;-71
2021/07/13 07:06:29;;;;;;;4.07;1.67;;;;;;;27.10;86.28;97175.91;5061681;28;20217;-71
2021/07/13 07:08:58;;;;;;;5.23;2.43;;;;;;;27.26;86.10;97178.97;5062158;28;20621;-71
2021/07/13 07:11:25;;;;;;;4.40;1.87;;;;;;;27.28;85.36;97173.94;5058543;28;20198;-71
2021/07/13 07:13:53;;;;;;;3.87;1.77;;;;;;;26.96;85.79;97164.31;5067148;28;20225;-71
2021/07/13 07:16:20;;;;;;;3.27;1.93;;;;;;;27.29;85.33;97172.81;5060927;28;20214;-71
2021/07/13 07:18:47;;;;;;;4.53;1.77;;;;;;;27.48;84.82;97175.97;5066081;28;20210;-71
2021/07/13 07:21:14;;;;;;;4.10;1.90;;;;;;;26.63;87.68;97184.34;5060520;28;20232;-71
2021/07/13 07:23:42;;;;;;;4.53;1.87;;;;;;;26.27;91.91;97184.66;5061896;28;20221;-71
2021/07/13 07:26:10;;;;;;;5.47;2.50;;;;;;;26.90;91.50;97179.31;5060602;28;20206;-71
2021/07/13 07:28:37;;;;;;;3.53;2.10;;;;;;;25.80;96.94;97173.78;5065910;28;20201;-69
2021/07/13 07:31:05;;;;;;;3.40;2.30;;;;;;;25.61;99.33;97167.75;5068285;28;20209;-69
2021/07/13 07:33:32;;;;;;;7.80;2.73;;;;;;;25.98;100.00;97161.75;5064401;28;20221;-68
2021/07/13 07:35:59;;;;;;;3.13;1.93;;;;;;;25.93;100.00;97161.91;5067838;28;20216;-69
2021/07/13 07:38:26;;;;;;;5.67;2.40;;;;;;;26.20;98.58;97167.91;5063261;28;20208;-69
2021/07/13 07:40:54;;;;;;;8.20;2.50;;;;;;;25.93;95.30;97165.47;5065318;28;20228;-69
2021/07/13 07:43:23;;;;;;;3.97;2.50;;;;;;;26.26;96.46;97152.97;5062371;28;20226;-69
2021/07/13 07:45:50;;;;;;;5.20;2.43;;;;;;;25.81;96.38;97167.19;5067757;28;20568;-69
2021/07/13 07:48:17;;;;;;;5.50;2.20;;;;;;;26.20;98.92;97178.84;5061709;28;20214;-69
2021/07/13 07:50:44;;;;;;;3.30;2.40;;;;;;;26.08;94.43;97186.88;5068139;28;20212;-69
2021/07/13 07:53:11;;;;;;;4.93;2.40;;;;;;;26.62;94.95;97185.50;5067447;22;20237;-71
2021/07/13 07:55:39;;;;;;;4.70;2.70;;;;;;;26.89;94.67;97185.13;5064695;28;20212;-71
2021/07/13 07:58:06;;;;;;;7.67;3.63;;;;;;;26.06;94.45;97191.88;5064462;28;20243;-73
2021/07/13 08:00:35;;;;;;;5.63;2.90;;;;;;;25.51;99.65;97198.09;5059500;28;20214;-73
2021/07/13 08:03:02;;;;;;;5.87;2.60;;;;;;;26.19;94.42;97174.50;5061222;28;20233;-72
2021/07/13 08:05:32;;;;;;;5.30;2.70;;;;;;;25.90;97.21;97176.22;5040924;28;20218;-73
2021/07/13 08:07:59;;;;;;;4.47;3.10;;;;;;;26.20;96.95;97176.09;5035089;28;20260;-72
2021/07/13 08:10:26;;;;;;;6.10;3.00;;;;;;;25.75;97.61;97176.66;5038160;28;20640;-73
2021/07/13 08:12:54;;;;;;;5.40;3.10;;;;;;;26.30;98.42;97178.53;5035026;28;20222;-71
2021/07/13 08:15:21;;;;;;;5.93;3.27;;;;;;;26.80;95.10;97174.19;5039280;28;20609;-72
2021/07/13 08:17:50;;;;;;;6.53;3.20;;;;;;;26.84;94.37;97182.56;5035642;28;20573;-72
2021/07/13 08:20:17;;;;;;;4.40;2.70;;;;;;;26.56;94.60;97176.63;5039926;28;20696;-72
2021/07/13 08:22:46;;;;;;;6.57;3.47;;;;;;;26.66;93.58;97180.97;5036188;28;20234;-72
2021/07/13 08:25:13;;;;;;;5.00;2.83;;;;;;;26.51;95.92;97168.53;5041291;28;20230;-70
2021/07/13 08:27:41;;;;;;;4.20;2.77;;;;;;;27.03;94.51;97164.66;5036799;28;20574;-73
2021/07/13 08:30:09;;;;;;;4.07;2.90;;;;;;;26.27;93.53;97156.47;5034882;28;20869;-72
2021/07/13 08:32:36;;;;;;;5.60;3.73;;;;;;;26.46;96.29;97165.97;5041906;28;20194;-71
2021/07/13 08:35:06;;;;;;;6.43;3.17;;;;;;;26.67;91.81;97166.97;5037779;28;20234;-72
2021/07/13 08:37:35;;;;;;;4.73;3.17;;;;;;;27.08;92.33;97169.94;5042353;28;20679;-72
2021/07/13 08:40:04;;;;;;;5.83;3.53;;;;;;;26.53;92.34;97180.00;5038414;28;20238;-72
2021/07/13 08:42:35;;;;;;;5.37;3.37;;;;;;;26.91;92.98;97177.41;5042714;28;20792;-72
2021/07/13 08:45:05;;;;;;;4.77;3.13;;;;;;;27.11;89.39;97182.97;5039133;28;20265;-72
2021/07/13 08:47:35;;;;;;;7.07;3.30;;;;;;;26.39;95.74;97184.00;5043171;28;20241;-72
2021/07/13 08:50:03;;;;;;;5.90;3.63;;;;;;;26.50;90.63;97177.88;5040110;28;20213;-72
2021/07/13 08:52:32;;;;;;;6.13;3.67;;;;;;;26.65;92.37;97174.69;5043630;28;20201;-72
2021/07/13 08:55:00;;;;;;;5.97;3.53;;;;;;;26.64;92.28;97178.56;5041149;28;20781;-72
2021/07/13 08:57:27;;;;;;;7.33;4.40;;;;;;;26.59;93.10;97186.13;5037721;28;20222;-72
2021/07/13 08:59:54;;;;;;;6.23;4.20;;;;;;;26.91;90.58;97197.34;5043290;28;20685;-72
2021/07/13 09:02:22;;;;;;;6.70;4.43;;;;;;;27.29;90.48;97198.28;5038407;28;20226;-72
2021/07/13 09:04:49;;;;;;;7.30;4.17;;;;;;;26.76;90.97;97208.81;5052146;28;20332;-72
2021/07/13 09:07:18;;;;;;;6.37;3.47;;;;;;;26.33;93.75;97212.66;5039706;28;20207;-72
2021/07/13 09:09:52;;;;;;;3.60;2.30;;;;;;;25.69;98.03;97216.19;5043781;28;20206;-70
2021/07/13 09:12:21;;;;;;;2.10;1.30;;;;;;;24.78;97.60;97231.38;5039887;28;20573;-69
2021/07/13 09:14:56;;;;;;;1.97;1.20;;;;;;;24.41;100.00;97233.63;5039931;28;20713;-69
2021/07/13 09:17:34;;;;;;;1.47;0.90;;;;;;;24.43;100.00;97237.66;5037733;28;20209;-67
2021/07/13 09:20:13;;;;;;;1.80;1.10;;;;;;;24.47;100.00;97246.06;5035556;28;20205;-69
2021/07/13 09:22:51;;;;;;;1.70;1.00;;;;;;;24.76;99.75;97254.66;5039801;28;20232;-69
2021/07/13 09:25:25;;;;;;;3.50;1.00;;;;;;;25.02;100.00;97251.00;5037377;28;20283;-69
2021/07/13 09:28:13;;;;;;;3.83;0.70;;;;;;;24.70;100.00;97256.72;5042324;28;20223;-71
2021/07/13 09:30:42;;;;;;;1.47;0.83;;;;;;;24.94;97.84;97253.69;5042602;28;20215;-69
2021/07/13 09:33:21;;;;;;;5.67;1.30;;;;;;;24.51;100.00;97244.28;5041481;28;20202;-69
2021/07/13 09:36:08;;;;;;;3.73;0.80;;;;;;;24.21;100.00;97262.16;5042426;28;20211;-69
2021/07/13 09:38:37;;;;;;;1.03;0.60;;;;;;;23.85;100.00;97263.97;5042245;28;20200;-69
2021/07/13 09:41:12;;;;;;;2.30;0.50;;;;;;;24.23;99.21;97267.31;5040886;28;20204;-70
2021/07/13 09:43:59;;;;;;;0.70;0.33;;;;;;;24.42;97.75;97263.31;5049786;28;20714;-69
2021/07/13 09:46:32;;;;;;;1.63;0.40;;;;;;;23.71;99.49;97273.28;5026944;28;20212;-68
2021/07/13 09:49:14;;;;;;;0.30;0.30;;;;;;;24.08;100.00;97284.81;5035548;28;20209;-69
2021/07/13 09:51:43;;;;;;;2.07;0.40;;;;;;;24.19;97.04;97294.38;5050325;28;20201;-70
2021/07/13 09:54:35;;;;;;;3.50;0.60;;;;;;;24.41;98.26;97291.72;5041245;28;20230;-70
2021/07/13 09:57:05;;;;;;;0.43;0.30;;;;;;;24.20;94.82;97292.44;5036023;28;20215;-70
2021/07/13 09:59:33;;;;;;;0.93;0.30;;;;;;;23.40;99.63;97292.09;5037689;28;20221;-70
2021/07/13 10:02:03;;;;;;;5.83;0.80;;;;;;;23.32;99.31;97286.53;5039622;28;20726;-69
2021/07/13 10:04:31;;;;;;;2.37;0.50;;;;;;;23.58;100.00;97282.22;5045878;28;20257;-69
2021/07/13 10:07:05;;;;;;;0.20;0.20;;;;;;;23.31;100.00;97265.84;5040236;28;20257;-69
2021/07/13 10:09:34;;;;;;;0.90;0.40;;;;;;;23.98;95.60;97270.56;5039096;28;20212;-69
2021/07/13 10:12:06;;;;;;;0.77;0.40;;;;;;;24.72;91.82;97268.13;5040711;28;20206;-69
2021/07/13 10:14:33;;;;;;;0.53;0.27;;;;;;;23.44;96.34;97265.06;5040333;28;20243;-67
2021/07/13 10:17:02;;;;;;;0.77;0.40;;;;;;;24.27;95.82;97243.78;5041078;28;20238;-69
2021/07/13 10:19:30;;;;;;;0.83;0.33;;;;;;;23.68;97.24;97233.00;5041494;28;20210;-69
2021/07/13 10:21:58;;;;;;;2.93;0.40;;;;;;;23.55;95.50;97228.34;5043670;28;20274;-68
2021/07/13 10:24:26;;;;;;;0.40;0.30;;;;;;;23.28;98.20;97203.81;5041771;28;20232;-68
2021/07/13 10:26:55;;;;;;;0.67;0.30;;;;;;;23.88;95.12;97218.97;5043260;28;20588;-68
2021/07/13 10:29:44;;;;;;;2.80;0.40;;;;;;;24.75;99.17;97234.75;5039956;28;20208;-69
2021/07/13 10:32:31;;;;;;;1.70;0.30;;;;;;;24.97;95.20;97253.84;5039673;28;20219;-69
2021/07/13 10:35:01;;;;;;;1.60;0.40;;;;;;;24.90;93.95;97277.25;5039826;28;20236;-69
2021/07/13 10:37:31;;;;;;;0.53;0.50;;;;;;;24.76;94.42;97290.94;5036909;28;20291;-69
2021/07/13 10:39:59;;;;;;;1.10;0.43;;;;;;;24.41;92.00;97319.00;5039229;28;20248;-69
2021/07/13 10:43:02;;;;;;;0.27;0.27;;;;;;;24.44;92.19;97345.69;5037009;28;20318;-69
2021/07/13 10:45:32;;;;;;;0.80;0.50;;;;;;;24.64;93.26;97334.34;5035219;28;20216;-69
2021/07/13 10:48:12;;;;;;;1.33;0.80;;;;;;;24.14;95.14;97321.75;5042273;28;20216;-69
2021/07/13 10:50:54;;;;;;;0.93;0.30;;;;;;;25.17;89.14;97334.47;5034574;28;20617;-70
2021/07/13 10:53:30;;;;;;;0.60;0.30;;;;;;;24.85;88.85;97359.25;5045764;28;20231;-70
2021/07/13 10:55:59;;;;;;;1.07;0.40;;;;;;;24.18;94.25;97358.19;5040763;28;20625;-69
2021/07/13 10:58:38;;;;;;;1.30;0.30;;;;;;;24.13;88.94;97360.22;5043744;28;20204;-69
2021/07/13 11:01:09;;;;;;;1.70;0.30;;;;;;;24.48;89.27;97371.22;5038347;28;20578;-70
2021/07/13 11:03:56;;;;;;;0.50;0.30;;;;;;;24.42;88.17;97358.78;5038637;28;20243;-69
2021/07/13 11:06:46;;;;;;;2.03;0.50;;;;;;;24.25;90.23;97311.44;5040888;28;20212;-70
2021/07/13 11:09:18;;;;;;;0.60;0.30;;;;;;;24.08;91.19;97262.19;5035636;28;20218;-69
2021/07/13 11:11:46;;;;;;;1.20;0.53;;;;;;;24.45;86.26;97275.53;5040001;28;20665;-69
2021/07/13 11:14:15;;;;;;;0.40;0.33;;;;;;;25.04;90.62;97325.22;5036473;28;20250;-68
2021/07/13 11:16:45;;;;;;;0.87;0.40;;;;;;;25.23;88.76;97347.69;5040255;28;20296;-69
2021/07/13 11:19:15;;;;;;;1.63;0.80;;;;;;;24.88;88.00;97345.00;5037227;28;20213;-70
2021/07/13 11:21:44;;;;;;;0.80;0.50;;;;;;;24.49;84.99;97350.22;5042290;28;20235;-70
2021/07/13 11:24:13;;;;;;;0.63;0.40;;;;;;;24.58;86.21;97365.56;5036823;28;20780;-69
2021/07/13 11:26:42;;;;;;;0.50;0.30;;;;;;;24.32;89.42;97350.03;5034626;28;20213;-69
2021/07/13 11:29:16;;;;;;;0.90;0.50;;;;;;;24.66;92.11;97350.41;5038186;28;20205;-70
2021/07/13 11:31:48;;;;;;;1.13;0.50;;;;;;;24.78;86.06;97361.63;5035335;28;20209;-70
2021/07/13 11:34:17;;;;;;;1.30;0.50;;;;;;;25.17;84.06;97368.06;5044425;28;20232;-69
2021/07/13 11:36:46;;;;;;;1.40;0.63;;;;;;;25.02;84.39;97370.31;5034967;28;20206;-70
2021/07/13 11:39:15;;;;;;;2.10;0.50;;;;;;;24.95;85.08;97376.22;5036889;28;20691;-69
2021/07/13 11:41:44;;;;;;;2.47;0.57;;;;;;;24.67;83.93;97392.97;5035408;28;20572;-70